createdAt,value
2023-02-27T00:01:01.078Z,109645.56
2023-02-27T00:03:28.661Z,109385.06
2023-02-27T00:05:58.377Z,109385.06
2023-02-27T00:08:25.930Z,109385.06
2023-02-27T00:10:53.282Z,109385.06
2023-02-27T00:13:22.678Z,109385.06
2023-02-27T00:15:51.039Z,109385.06
2023-02-27T00:18:20.746Z,109385.06
2023-02-27T00:20:49.312Z,109124.56
2023-02-27T00:23:16.722Z,109124.56
2023-02-27T00:25:46.450Z,109124.56
2023-02-27T00:28:20.374Z,109124.56
2023-02-27T00:30:48.057Z,109385.06
2023-02-27T00:33:15.287Z,109385.06
2023-02-27T00:35:44.864Z,109385.06
2023-02-27T00:38:12.215Z,109645.56
2023-02-27T00:40:39.666Z,109645.56
2023-02-27T00:43:11.670Z,109645.56
2023-02-27T00:45:38.987Z,109645.56
2023-02-27T00:48:06.377Z,109385.06
2023-02-27T00:50:33.536Z,109385.06
2023-02-27T00:53:01.097Z,109385.06
2023-02-27T00:55:30.457Z,109385.06
2023-02-27T00:58:01.012Z,109385.06
2023-02-27T01:00:28.878Z,109385.06
2023-02-27T01:02:58.297Z,109124.56
2023-02-27T01:05:25.753Z,109124.56
2023-02-27T01:07:58.635Z,109124.56
2023-02-27T01:10:25.759Z,109124.56
2023-02-27T01:12:57.721Z,109124.56
2023-02-27T01:15:28.444Z,109124.56
2023-02-27T01:17:57.782Z,109124.56
2023-02-27T01:20:24.953Z,109124.56
2023-02-27T01:22:52.512Z,109124.56
2023-02-27T01:25:19.705Z,109124.56
2023-02-27T01:27:46.878Z,108864.09
2023-02-27T01:30:16.845Z,108864.09
2023-02-27T01:32:45.361Z,108864.09
2023-02-27T01:35:13.123Z,108864.09
2023-02-27T01:37:40.565Z,108864.09
2023-02-27T01:40:08.938Z,108864.09
2023-02-27T01:42:36.373Z,108864.09
2023-02-27T01:45:22.549Z,108603.66
2023-02-27T01:47:57.446Z,108864.09
2023-02-27T01:50:26.853Z,108603.66
2023-02-27T01:52:58.776Z,108603.66
2023-02-27T01:55:27.742Z,108603.66
2023-02-27T01:57:57.485Z,108603.66
2023-02-27T02:00:28.001Z,108603.66
2023-02-27T02:03:19.441Z,108343.22
2023-02-27T02:05:47.329Z,108603.66
2023-02-27T02:08:19.338Z,108603.66
2023-02-27T02:10:50.170Z,108603.66
2023-02-27T02:13:18.767Z,108082.81
2023-02-27T02:16:04.166Z,108082.81
2023-02-27T02:18:55.160Z,108343.22
2023-02-27T02:21:49.475Z,108082.81
2023-02-27T02:24:44.178Z,108082.81
2023-02-27T02:27:25.852Z,107562.06
2023-02-27T02:30:32.813Z,107562.06
2023-02-27T02:33:28.724Z,107562.06
2023-02-27T02:36:09.372Z,107301.72
2023-02-27T02:38:49.378Z,107562.06
2023-02-27T02:41:22.811Z,107562.06
2023-02-27T02:43:55.830Z,107562.06
2023-02-27T02:46:49.696Z,107562.06
2023-02-27T02:49:22.202Z,107301.72
2023-02-27T02:52:20.558Z,107041.38
2023-02-27T02:54:50.627Z,106781.06
2023-02-27T02:57:29.750Z,106781.06
2023-02-27T03:00:00.890Z,106781.06
2023-02-27T03:02:35.683Z,106781.06
2023-02-27T03:05:16.503Z,107041.38
2023-02-27T03:07:51.487Z,107041.38
2023-02-27T03:10:26.753Z,107041.38
2023-02-27T03:13:02.020Z,107041.38
2023-02-27T03:15:40.767Z,106781.06
2023-02-27T03:18:19.656Z,106781.06
2023-02-27T03:20:55.943Z,107041.38
2023-02-27T03:23:38.409Z,106781.06
2023-02-27T03:26:09.516Z,106520.78
2023-02-27T03:28:50.023Z,106000.25
2023-02-27T03:31:25.629Z,105740.00
2023-02-27T03:34:09.066Z,105479.81
2023-02-27T03:36:39.503Z,105219.59
2023-02-27T03:39:32.680Z,105219.59
2023-02-27T03:42:03.284Z,104959.44
2023-02-27T03:45:00.728Z,104959.44
2023-02-27T03:47:28.864Z,104699.28
2023-02-27T03:49:56.859Z,104179.03
2023-02-27T03:52:26.074Z,104699.28
2023-02-27T03:54:59.952Z,104699.28
2023-02-27T03:57:28.050Z,104699.28
2023-02-27T03:59:55.739Z,104699.28
2023-02-27T04:02:23.319Z,104439.13
2023-02-27T04:04:50.818Z,104179.03
2023-02-27T04:07:50.552Z,104699.28
2023-02-27T04:10:49.528Z,104959.44
2023-02-27T04:13:42.714Z,104699.28
2023-02-27T04:16:15.522Z,104439.13
2023-02-27T04:19:01.361Z,104179.03
2023-02-27T04:21:40.374Z,104179.03
2023-02-27T04:24:34.471Z,103658.84
2023-02-27T04:27:40.788Z,103138.75
2023-02-27T04:30:43.250Z,103138.75
2023-02-27T04:33:26.558Z,102878.72
2023-02-27T04:36:02.135Z,102618.72
2023-02-27T04:38:44.775Z,102618.72
2023-02-27T04:41:29.571Z,102358.75
2023-02-27T04:44:01.983Z,101838.84
2023-02-27T04:46:34.551Z,101578.91
2023-02-27T04:49:15.161Z,101578.91
2023-02-27T04:51:54.668Z,101319.00
2023-02-27T04:54:36.137Z,100799.25
2023-02-27T04:57:10.154Z,100279.59
2023-02-27T04:59:43.148Z,100019.78
2023-02-27T05:02:18.555Z,99760.00
2023-02-27T05:04:49.098Z,99500.22
2023-02-27T05:07:24.272Z,98980.75
2023-02-27T05:10:15.089Z,98461.34
2023-02-27T05:12:51.449Z,97942.03
2023-02-27T05:16:05.729Z,97422.78
2023-02-27T05:18:34.490Z,97163.19
2023-02-27T05:21:01.545Z,96644.06
2023-02-27T05:24:04.059Z,96125.00
2023-02-27T05:27:10.074Z,95606.03
2023-02-27T05:29:48.900Z,95346.59
2023-02-27T05:32:36.624Z,95346.59
2023-02-27T05:35:09.147Z,96644.06
2023-02-27T05:37:51.262Z,96903.63
2023-02-27T05:40:37.019Z,97422.78
2023-02-27T05:43:16.202Z,97682.41
2023-02-27T05:45:48.073Z,97942.03
2023-02-27T05:48:24.221Z,98201.69
2023-02-27T05:50:53.645Z,98201.69
2023-02-27T05:53:24.940Z,98201.69
2023-02-27T05:56:02.016Z,98201.69
2023-02-27T05:58:47.878Z,98461.34
2023-02-27T06:01:15.840Z,98461.34
2023-02-27T06:03:45.818Z,98461.34
2023-02-27T06:06:18.619Z,97942.03
2023-02-27T06:08:46.478Z,97942.03
2023-02-27T06:11:14.118Z,97942.03
2023-02-27T06:13:42.227Z,98201.69
2023-02-27T06:16:12.709Z,98201.69
2023-02-27T06:18:40.128Z,98201.69
2023-02-27T06:21:09.846Z,98201.69
2023-02-27T06:23:37.504Z,98980.75
2023-02-27T06:26:04.925Z,99240.47
2023-02-27T06:28:34.670Z,98980.75
2023-02-27T06:31:04.150Z,99240.47
2023-02-27T06:33:31.503Z,99500.22
2023-02-27T06:36:01.046Z,98980.75
2023-02-27T06:38:28.420Z,98461.34
2023-02-27T06:40:55.728Z,98461.34
2023-02-27T06:43:23.209Z,98721.03
2023-02-27T06:45:54.170Z,98721.03
2023-02-27T06:48:21.387Z,99500.22
2023-02-27T06:50:53.596Z,99760.00
2023-02-27T06:53:20.949Z,99760.00
2023-02-27T06:55:50.440Z,100019.78
2023-02-27T06:58:18.121Z,100279.59
2023-02-27T07:00:48.425Z,100279.59
2023-02-27T07:03:15.736Z,100279.59
2023-02-27T07:05:43.597Z,100279.59
2023-02-27T07:08:12.936Z,100539.41
2023-02-27T07:10:42.836Z,100539.41
2023-02-27T07:13:17.885Z,100539.41
2023-02-27T07:15:46.714Z,100539.41
2023-02-27T07:18:16.453Z,100799.25
2023-02-27T07:20:48.141Z,100799.25
2023-02-27T07:23:15.276Z,100799.25
2023-02-27T07:25:46.615Z,100799.25
2023-02-27T07:28:14.173Z,100799.25
2023-02-27T07:30:41.874Z,100799.25
2023-02-27T07:33:12.775Z,100799.25
2023-02-27T07:35:42.579Z,100799.25
2023-02-27T07:38:09.855Z,100799.25
2023-02-27T07:40:37.199Z,100799.25
2023-02-27T07:43:04.526Z,100799.25
2023-02-27T07:45:31.853Z,100799.25
2023-02-27T07:47:59.202Z,101059.13
2023-02-27T07:50:26.725Z,101059.13
2023-02-27T07:52:53.907Z,101059.13
2023-02-27T07:55:23.675Z,101059.13
2023-02-27T07:57:50.833Z,101319.00
2023-02-27T08:00:18.824Z,101319.00
2023-02-27T08:02:50.896Z,101319.00
2023-02-27T08:05:21.141Z,101319.00
2023-02-27T08:07:50.518Z,101838.84
2023-02-27T08:10:17.990Z,102098.78
2023-02-27T08:12:47.843Z,102618.72
2023-02-27T08:15:17.664Z,102618.72
2023-02-27T08:17:46.012Z,102878.72
2023-02-27T08:20:14.574Z,103138.75
2023-02-27T08:22:44.817Z,102878.72
2023-02-27T08:25:12.252Z,103138.75
2023-02-27T08:27:45.410Z,103138.75
2023-02-27T08:30:17.001Z,100539.41
2023-02-27T08:32:47.010Z,88089.66
2023-02-27T08:35:14.663Z,83432.50
2023-02-27T08:37:41.992Z,85760.28
2023-02-27T08:40:10.911Z,88866.44
2023-02-27T08:42:38.063Z,91975.41
2023-02-27T08:45:05.777Z,93530.91
2023-02-27T08:47:33.113Z,94049.59
2023-02-27T08:50:00.363Z,94568.31
2023-02-27T08:52:28.217Z,95087.13
2023-02-27T08:54:58.378Z,95606.03
2023-02-27T08:57:28.524Z,96125.00
2023-02-27T08:59:55.913Z,96125.00
2023-02-27T09:02:26.027Z,96125.00
2023-02-27T09:04:55.615Z,96644.06
2023-02-27T09:07:28.152Z,96903.63
2023-02-27T09:09:55.466Z,97163.19
2023-02-27T09:12:22.748Z,97163.19
2023-02-27T09:14:52.479Z,97422.78
2023-02-27T09:17:19.697Z,97422.78
2023-02-27T09:19:46.830Z,97422.78
2023-02-27T09:22:17.955Z,97422.78
2023-02-27T09:24:48.204Z,98201.69
2023-02-27T09:27:15.744Z,98201.69
2023-02-27T09:29:45.417Z,97942.03
2023-02-27T09:32:14.964Z,97682.41
2023-02-27T09:34:46.418Z,97163.19
2023-02-27T09:37:13.803Z,97422.78
2023-02-27T09:39:46.009Z,98980.75
2023-02-27T09:42:21.079Z,99760.00
2023-02-27T09:45:05.788Z,100279.59
2023-02-27T09:47:50.768Z,102098.78
2023-02-27T09:50:41.286Z,103918.91
2023-02-27T09:53:31.188Z,104959.44
2023-02-27T09:56:16.174Z,104699.28
2023-02-27T09:58:51.660Z,104959.44
2023-02-27T10:01:27.698Z,105479.81
2023-02-27T10:04:08.837Z,105219.59
2023-02-27T10:07:01.367Z,104699.28
2023-02-27T10:09:35.981Z,104439.13
2023-02-27T10:12:31.119Z,104439.13
2023-02-27T10:15:05.948Z,104439.13
2023-02-27T10:17:42.722Z,104179.03
2023-02-27T10:20:46.549Z,103918.91
2023-02-27T10:23:22.122Z,103658.84
2023-02-27T10:25:52.310Z,103658.84
2023-02-27T10:28:23.048Z,103658.84
2023-02-27T10:30:56.411Z,103398.78
2023-02-27T10:33:40.808Z,102878.72
2023-02-27T10:36:20.721Z,102618.72
2023-02-27T10:39:01.593Z,102878.72
2023-02-27T10:41:30.116Z,103138.75
2023-02-27T10:44:00.061Z,102878.72
2023-02-27T10:46:34.156Z,102618.72
2023-02-27T10:49:13.993Z,102618.72
2023-02-27T10:51:44.804Z,102618.72
2023-02-27T10:54:17.160Z,102098.78
2023-02-27T10:56:54.091Z,102098.78
2023-02-27T10:59:23.552Z,101578.91
2023-02-27T11:01:54.071Z,101319.00
2023-02-27T11:04:48.971Z,101578.91
2023-02-27T11:07:27.770Z,101059.13
2023-02-27T11:10:04.011Z,100799.25
2023-02-27T11:12:37.445Z,100799.25
2023-02-27T11:15:16.752Z,100799.25
2023-02-27T11:17:46.294Z,100279.59
2023-02-27T11:20:29.728Z,100019.78
2023-02-27T11:23:17.636Z,99500.22
2023-02-27T11:25:48.002Z,99760.00
2023-02-27T11:28:28.285Z,90420.56
2023-02-27T11:31:01.984Z,82915.44
2023-02-27T11:33:36.319Z,79814.63
2023-02-27T11:36:04.852Z,79814.63
2023-02-27T11:38:32.890Z,82139.97
2023-02-27T11:41:03.516Z,85242.88
2023-02-27T11:43:40.144Z,88089.66
2023-02-27T11:46:46.572Z,88607.50
2023-02-27T11:49:31.574Z,89384.41
2023-02-27T11:52:08.150Z,89643.41
2023-02-27T11:54:45.460Z,90161.50
2023-02-27T11:57:24.924Z,90938.78
2023-02-27T12:00:06.544Z,91457.03
2023-02-27T12:03:01.818Z,91975.41
2023-02-27T12:05:51.164Z,92753.06
2023-02-27T12:08:46.118Z,92753.06
2023-02-27T12:11:28.133Z,92493.81
2023-02-27T12:14:17.783Z,91197.91
2023-02-27T12:16:51.209Z,90420.56
2023-02-27T12:19:26.232Z,90420.56
2023-02-27T12:22:03.220Z,89643.41
2023-02-27T12:24:59.180Z,91197.91
2023-02-27T12:27:43.778Z,91197.91
2023-02-27T12:30:16.109Z,89643.41
2023-02-27T12:32:50.364Z,88348.56
2023-02-27T12:35:24.597Z,87830.75
2023-02-27T12:37:55.100Z,87571.88
2023-02-27T12:40:36.855Z,86795.38
2023-02-27T12:43:13.897Z,86019.03
2023-02-27T12:45:53.536Z,84984.19
2023-02-27T12:48:54.771Z,84466.88
2023-02-27T12:51:47.150Z,84208.25
2023-02-27T12:54:22.672Z,83949.66
2023-02-27T12:57:22.289Z,85760.28
2023-02-27T12:59:52.968Z,85760.28
2023-02-27T13:02:49.297Z,83432.50
2023-02-27T13:05:28.734Z,82139.97
2023-02-27T13:08:24.825Z,84208.25
2023-02-27T13:11:18.633Z,84208.25
2023-02-27T13:13:52.138Z,77232.75
2023-02-27T13:16:28.779Z,78007.13
2023-02-27T13:19:06.331Z,77490.88
2023-02-27T13:21:55.363Z,76458.59
2023-02-27T13:24:29.045Z,76458.59
2023-02-27T13:26:56.187Z,76458.59
2023-02-27T13:29:34.940Z,76200.56
2023-02-27T13:32:43.666Z,75426.59
2023-02-27T13:35:22.620Z,75942.56
2023-02-27T13:37:56.049Z,76200.56
2023-02-27T13:40:41.927Z,76974.69
2023-02-27T13:43:26.659Z,79298.09
2023-02-27T13:46:04.162Z,78523.44
2023-02-27T13:48:34.414Z,75168.66
2023-02-27T13:51:01.858Z,75426.59
2023-02-27T13:53:29.828Z,77490.88
2023-02-27T13:56:23.437Z,75168.66
2023-02-27T13:58:57.639Z,74652.84
2023-02-27T14:01:28.866Z,75426.59
2023-02-27T14:04:04.015Z,74652.84
2023-02-27T14:06:44.237Z,74910.75
2023-02-27T14:09:17.402Z,75168.66
2023-02-27T14:11:57.869Z,75684.56
2023-02-27T14:14:49.034Z,77748.97
2023-02-27T14:17:35.825Z,74137.09
2023-02-27T14:20:04.458Z,74910.75
2023-02-27T14:22:39.692Z,73879.22
2023-02-27T14:25:23.266Z,56647.66
2023-02-27T14:27:59.306Z,43290.00
2023-02-27T14:30:31.228Z,40406.59
2023-02-27T14:33:08.041Z,39758.44
2023-02-27T14:35:38.432Z,39507.16
2023-02-27T14:38:11.505Z,39395.50
2023-02-27T14:41:04.692Z,39351.63
2023-02-27T14:43:45.232Z,39327.72
2023-02-27T14:46:36.102Z,39283.84
2023-02-27T14:49:05.180Z,39289.81
2023-02-27T14:51:35.794Z,39279.84
2023-02-27T14:54:14.973Z,39295.81
2023-02-27T14:56:54.086Z,39271.88
2023-02-27T14:59:36.803Z,39283.84
2023-02-27T15:02:18.378Z,39337.69
2023-02-27T15:04:46.428Z,39333.69
2023-02-27T15:07:26.725Z,39351.63
2023-02-27T15:09:58.791Z,39373.56
2023-02-27T15:12:29.232Z,39347.66
2023-02-27T15:15:02.339Z,39403.47
2023-02-27T15:17:41.450Z,39437.38
2023-02-27T15:20:27.445Z,39483.25
2023-02-27T15:22:58.047Z,39570.97
2023-02-27T15:25:39.816Z,39658.72
2023-02-27T15:28:26.428Z,39690.63
2023-02-27T15:30:59.344Z,39632.78
2023-02-27T15:33:30.334Z,39437.38
2023-02-27T15:36:01.851Z,39417.44
2023-02-27T15:38:30.670Z,39451.34
2023-02-27T15:40:59.970Z,39467.28
2023-02-27T15:43:28.702Z,39473.25
2023-02-27T15:45:58.185Z,39563.00
2023-02-27T15:48:29.421Z,39355.63
2023-02-27T15:51:03.537Z,39335.69
2023-02-27T15:53:33.873Z,39327.72
2023-02-27T15:56:06.145Z,39379.56
2023-02-27T15:58:40.045Z,39443.34
2023-02-27T16:01:17.190Z,39499.19
2023-02-27T16:03:49.115Z,39608.88
2023-02-27T16:06:23.391Z,39740.47
2023-02-27T16:08:52.665Z,39957.84
2023-02-27T16:11:26.690Z,40201.16
2023-02-27T16:13:54.602Z,40416.56
2023-02-27T16:16:38.732Z,40639.97
2023-02-27T16:19:30.074Z,41001.03
2023-02-27T16:22:14.072Z,41609.56
2023-02-27T16:24:43.410Z,42649.25
2023-02-27T16:27:25.163Z,44581.84
2023-02-27T16:29:55.504Z,46016.06
2023-02-27T16:32:33.029Z,49294.22
2023-02-27T16:35:23.092Z,52415.44
2023-02-27T16:37:51.409Z,53682.75
2023-02-27T16:40:25.485Z,56134.63
2023-02-27T16:42:53.351Z,59470.75
2023-02-27T16:45:23.117Z,64095.41
2023-02-27T16:47:58.560Z,69498.81
2023-02-27T16:50:33.556Z,71301.84
2023-02-27T16:53:01.144Z,72848.03
2023-02-27T16:55:33.145Z,72590.28
2023-02-27T16:58:00.932Z,74394.94
2023-02-27T17:00:30.711Z,77232.75
2023-02-27T17:02:57.876Z,79556.34
2023-02-27T17:05:26.274Z,80847.91
2023-02-27T17:07:55.677Z,80847.91
2023-02-27T17:10:26.204Z,81106.28
2023-02-27T17:12:54.018Z,80847.91
2023-02-27T17:15:21.967Z,81364.69
2023-02-27T17:17:50.451Z,80847.91
2023-02-27T17:20:17.772Z,81106.28
2023-02-27T17:22:45.427Z,81623.09
2023-02-27T17:25:15.895Z,81364.69
2023-02-27T17:27:43.903Z,81106.28
2023-02-27T17:30:16.513Z,81364.69
2023-02-27T17:32:45.850Z,81106.28
2023-02-27T17:35:17.451Z,81106.28
2023-02-27T17:37:44.701Z,81106.28
2023-02-27T17:40:14.350Z,81106.28
2023-02-27T17:42:41.717Z,81364.69
2023-02-27T17:45:09.965Z,81623.09
2023-02-27T17:47:40.017Z,81881.53
2023-02-27T17:50:07.746Z,81623.09
2023-02-27T17:52:36.943Z,81881.53
2023-02-27T17:55:05.926Z,81881.53
2023-02-27T17:57:35.789Z,81881.53
2023-02-27T18:00:06.723Z,81623.09
2023-02-27T18:02:34.154Z,81881.53
2023-02-27T18:05:04.709Z,81881.53
2023-02-27T18:07:32.409Z,82656.94
2023-02-27T18:10:00.763Z,83949.66
2023-02-27T18:12:28.018Z,85242.88
2023-02-27T18:14:56.253Z,85501.56
2023-02-27T18:17:23.845Z,85760.28
2023-02-27T18:19:51.188Z,85760.28
2023-02-27T18:22:22.098Z,85760.28
2023-02-27T18:24:53.712Z,85501.56
2023-02-27T18:27:22.082Z,85242.88
2023-02-27T18:29:49.812Z,85242.88
2023-02-27T18:32:17.631Z,84984.19
2023-02-27T18:34:47.583Z,84984.19
2023-02-27T18:37:14.834Z,85242.88
2023-02-27T18:39:44.575Z,85501.56
2023-02-27T18:42:11.898Z,86019.03
2023-02-27T18:44:41.368Z,85760.28
2023-02-27T18:47:09.583Z,85501.56
2023-02-27T18:49:39.325Z,85501.56
2023-02-27T18:52:06.702Z,85501.56
2023-02-27T18:54:36.468Z,85760.28
2023-02-27T18:57:03.783Z,85501.56
2023-02-27T18:59:31.548Z,85760.28
2023-02-27T19:01:58.962Z,85760.28
2023-02-27T19:04:26.269Z,86019.03
2023-02-27T19:06:53.694Z,86019.03
2023-02-27T19:09:22.318Z,86019.03
2023-02-27T19:11:49.578Z,86019.03
2023-02-27T19:14:17.063Z,86277.78
2023-02-27T19:16:46.069Z,86019.03
2023-02-27T19:19:13.397Z,86019.03
2023-02-27T19:21:40.901Z,86277.78
2023-02-27T19:24:10.161Z,86277.78
2023-02-27T19:26:37.805Z,87054.19
2023-02-27T19:29:07.776Z,88089.66
2023-02-27T19:31:37.523Z,88607.50
2023-02-27T19:34:07.545Z,89384.41
2023-02-27T19:36:35.957Z,89902.44
2023-02-27T19:39:04.342Z,90161.50
2023-02-27T19:41:33.402Z,89902.44
2023-02-27T19:44:03.456Z,89384.41
2023-02-27T19:46:41.184Z,88607.50
2023-02-27T19:49:09.073Z,87313.03
2023-02-27T19:51:36.330Z,86795.38
2023-02-27T19:54:08.750Z,86277.78
2023-02-27T19:56:38.531Z,83691.06
2023-02-27T19:59:05.977Z,81364.69
2023-02-27T20:01:36.224Z,80331.25
2023-02-27T20:04:07.578Z,79298.09
2023-02-27T20:06:42.120Z,77748.97
2023-02-27T20:09:13.255Z,75942.56
2023-02-27T20:11:42.014Z,74394.94
2023-02-27T20:14:13.965Z,75426.59
2023-02-27T20:16:44.609Z,75684.56
2023-02-27T20:19:18.029Z,76200.56
2023-02-27T20:21:49.120Z,76200.56
2023-02-27T20:24:18.777Z,76200.56
2023-02-27T20:26:50.608Z,76458.59
2023-02-27T20:29:23.556Z,76716.63
2023-02-27T20:31:55.679Z,77232.75
2023-02-27T20:34:26.319Z,77490.88
2023-02-27T20:36:57.570Z,76974.69
2023-02-27T20:39:25.132Z,76716.63
2023-02-27T20:41:52.498Z,76200.56
2023-02-27T20:44:22.001Z,76200.56
2023-02-27T20:46:51.764Z,76458.59
2023-02-27T20:49:22.722Z,75942.56
2023-02-27T20:51:50.123Z,75942.56
2023-02-27T20:54:20.720Z,75426.59
2023-02-27T20:56:52.094Z,75168.66
2023-02-27T20:59:21.421Z,74652.84
2023-02-27T21:01:52.031Z,74652.84
2023-02-27T21:04:43.136Z,74394.94
2023-02-27T21:07:15.665Z,74394.94
2023-02-27T21:09:43.584Z,73879.22
2023-02-27T21:12:11.830Z,72848.03
2023-02-27T21:14:38.938Z,72332.56
2023-02-27T21:17:08.028Z,72074.84
2023-02-27T21:19:35.225Z,71301.84
2023-02-27T21:22:05.519Z,71044.19
2023-02-27T21:24:34.951Z,70013.84
2023-02-27T21:27:07.334Z,70013.84
2023-02-27T21:29:37.053Z,68983.81
2023-02-27T21:32:07.450Z,68983.81
2023-02-27T21:34:35.019Z,69241.31
2023-02-27T21:37:06.308Z,68468.91
2023-02-27T21:39:33.672Z,67954.09
2023-02-27T21:42:01.942Z,67439.34
2023-02-27T21:44:31.905Z,67182.00
2023-02-27T21:46:59.383Z,66152.84
2023-02-27T21:49:31.376Z,65381.16
2023-02-27T21:52:00.912Z,64609.66
2023-02-27T21:54:28.259Z,63838.31
2023-02-27T21:57:03.159Z,63324.19
2023-02-27T21:59:31.269Z,62810.16
2023-02-27T22:02:00.972Z,62553.16
2023-02-27T22:04:28.354Z,62553.16
2023-02-27T22:06:59.408Z,61525.38
2023-02-27T22:09:29.031Z,59214.00
2023-02-27T22:11:56.331Z,59470.75
2023-02-27T22:14:25.081Z,58700.59
2023-02-27T22:16:52.641Z,58957.28
2023-02-27T22:19:20.814Z,57930.59
2023-02-27T22:21:48.260Z,56647.66
2023-02-27T22:24:15.525Z,55621.66
2023-02-27T22:26:44.528Z,55108.78
2023-02-27T22:29:11.900Z,55365.22
2023-02-27T22:31:39.328Z,54339.59
2023-02-27T22:34:18.384Z,53440.44
2023-02-27T22:36:48.473Z,52757.75
2023-02-27T22:39:15.975Z,51142.59
2023-02-27T22:41:43.151Z,50570.38
2023-02-27T22:44:13.430Z,50144.25
2023-02-27T22:46:49.779Z,49380.22
2023-02-27T22:49:22.817Z,48580.34
2023-02-27T22:51:51.975Z,48588.34
2023-02-27T22:54:21.408Z,47332.94
2023-02-27T22:56:57.909Z,46597.50
2023-02-27T22:59:28.136Z,45928.16
2023-02-27T23:01:55.448Z,45312.88
2023-02-27T23:04:24.869Z,45238.97
2023-02-27T23:06:54.746Z,44917.38
2023-02-27T23:09:25.282Z,44470.03
2023-02-27T23:11:55.791Z,43944.84
2023-02-27T23:14:23.004Z,43411.78
2023-02-27T23:16:54.834Z,43066.44
2023-02-27T23:19:22.631Z,42611.34
2023-02-27T23:21:50.013Z,42483.59
2023-02-27T23:24:18.807Z,42258.09
2023-02-27T23:26:50.639Z,42108.41
2023-02-27T23:29:18.493Z,41599.56
2023-02-27T23:31:46.142Z,41455.91
2023-02-27T23:34:16.386Z,41445.94
2023-02-27T23:36:45.962Z,41234.47
2023-02-27T23:39:17.646Z,40945.19
2023-02-27T23:41:44.855Z,40785.59
2023-02-27T23:44:30.807Z,40659.91
2023-02-27T23:47:00.333Z,40546.22
2023-02-27T23:49:27.501Z,40438.50
2023-02-27T23:51:54.821Z,40223.09
2023-02-27T23:54:24.524Z,40330.81
2023-02-27T23:56:51.823Z,40235.06
2023-02-27T23:59:21.165Z,40113.41
